createdAt,value
2022-09-12T00:01:34.023Z,16.40
2022-09-12T00:04:22.508Z,16.39
2022-09-12T00:07:11.878Z,16.37
2022-09-12T00:10:00.630Z,16.35
2022-09-12T00:12:49.385Z,16.31
2022-09-12T00:15:42.206Z,16.29
2022-09-12T00:18:31.812Z,16.26
2022-09-12T00:21:21.559Z,16.22
2022-09-12T00:24:11.579Z,16.22
2022-09-12T00:27:00.331Z,16.21
2022-09-12T00:29:49.291Z,16.20
2022-09-12T00:32:38.672Z,16.20
2022-09-12T00:35:28.232Z,16.19
2022-09-12T00:38:18.968Z,16.18
2022-09-12T00:41:09.019Z,16.13
2022-09-12T00:44:00.031Z,16.08
2022-09-12T00:46:53.066Z,16.07
2022-09-12T00:49:47.191Z,16.07
2022-09-12T00:52:40.268Z,16.07
2022-09-12T00:55:34.020Z,16.08
2022-09-12T00:58:26.297Z,16.09
2022-09-12T01:01:14.954Z,16.10
2022-09-12T01:04:05.684Z,16.10
2022-09-12T01:06:58.343Z,16.06
2022-09-12T01:09:48.108Z,16.03
2022-09-12T01:12:40.461Z,15.98
2022-09-12T01:15:30.055Z,15.95
2022-09-12T01:18:25.186Z,15.95
2022-09-12T01:21:20.673Z,15.98
2022-09-12T01:24:47.588Z,15.97
2022-09-12T01:27:48.223Z,15.97
2022-09-12T01:30:54.182Z,15.96
2022-09-12T01:34:04.080Z,15.94
2022-09-12T01:37:04.255Z,15.92
2022-09-12T01:40:01.851Z,15.89
2022-09-12T01:42:58.561Z,15.89
2022-09-12T01:45:53.891Z,15.90
2022-09-12T01:48:48.545Z,15.90
2022-09-12T01:51:42.231Z,15.90
2022-09-12T01:54:37.844Z,15.89
2022-09-12T01:57:31.805Z,15.88
2022-09-12T02:00:20.918Z,15.87
2022-09-12T02:03:14.672Z,15.86
2022-09-12T02:06:11.514Z,15.84
2022-09-12T02:09:03.580Z,15.83
2022-09-12T02:11:53.620Z,15.82
2022-09-12T02:14:46.235Z,15.80
2022-09-12T02:17:37.888Z,15.76
2022-09-12T02:20:48.617Z,15.73
2022-09-12T02:23:41.210Z,15.72
2022-09-12T02:26:35.062Z,15.68
2022-09-12T02:29:23.834Z,15.66
2022-09-12T02:32:19.757Z,15.63
2022-09-12T02:35:15.149Z,15.60
2022-09-12T02:38:07.342Z,15.58
2022-09-12T02:40:56.565Z,15.53
2022-09-12T02:43:45.426Z,15.48
2022-09-12T02:46:39.255Z,15.48
2022-09-12T02:49:28.468Z,15.45
2022-09-12T02:52:18.043Z,15.44
2022-09-12T02:55:11.101Z,15.42
2022-09-12T02:58:01.428Z,15.40
2022-09-12T03:00:58.256Z,15.39
2022-09-12T03:04:00.509Z,15.39
2022-09-12T03:06:57.274Z,15.37
2022-09-12T03:09:58.699Z,15.34
2022-09-12T03:13:03.840Z,15.33
2022-09-12T03:16:03.920Z,15.31
2022-09-12T03:18:58.700Z,15.29
2022-09-12T03:21:54.809Z,15.28
2022-09-12T03:24:49.787Z,15.27
2022-09-12T03:27:44.887Z,15.27
2022-09-12T03:30:39.027Z,15.23
2022-09-12T03:33:28.542Z,15.22
2022-09-12T03:36:19.961Z,15.20
2022-09-12T03:39:08.104Z,15.18
2022-09-12T03:41:58.036Z,15.17
2022-09-12T03:44:47.041Z,15.13
2022-09-12T03:47:37.649Z,15.10
2022-09-12T03:50:26.600Z,15.06
2022-09-12T03:53:17.390Z,15.02
2022-09-12T03:56:10.607Z,14.99
2022-09-12T03:58:59.625Z,14.96
2022-09-12T04:01:48.381Z,14.93
2022-09-12T04:04:36.728Z,14.92
2022-09-12T04:07:26.481Z,14.89
2022-09-12T04:10:16.329Z,14.87
2022-09-12T04:13:05.192Z,14.85
2022-09-12T04:15:59.933Z,14.82
2022-09-12T04:18:48.421Z,14.80
2022-09-12T04:21:37.448Z,14.77
2022-09-12T04:24:26.620Z,14.74
2022-09-12T04:27:16.799Z,14.72
2022-09-12T04:30:08.371Z,14.67
2022-09-12T04:32:57.177Z,14.66
2022-09-12T04:35:46.749Z,14.64
2022-09-12T04:38:37.346Z,14.63
2022-09-12T04:41:27.892Z,14.60
2022-09-12T04:44:17.317Z,14.58
2022-09-12T04:47:06.274Z,14.56
2022-09-12T04:49:55.031Z,14.55
2022-09-12T04:52:43.788Z,14.56
2022-09-12T04:55:34.796Z,14.54
2022-09-12T04:58:24.368Z,14.56
2022-09-12T05:01:15.221Z,14.60
2022-09-12T05:04:05.157Z,14.63
2022-09-12T05:06:54.525Z,14.69
2022-09-12T05:09:43.486Z,14.72
2022-09-12T05:12:32.331Z,14.75
2022-09-12T05:15:20.585Z,14.80
2022-09-12T05:18:09.760Z,14.85
2022-09-12T05:21:00.369Z,14.89
2022-09-12T05:23:50.947Z,14.92
2022-09-12T05:26:39.294Z,14.98
2022-09-12T05:29:28.455Z,15.04
2022-09-12T05:32:17.210Z,15.10
2022-09-12T05:35:07.722Z,15.16
2022-09-12T05:37:56.562Z,15.21
2022-09-12T05:40:45.913Z,15.29
2022-09-12T05:43:34.896Z,15.38
2022-09-12T05:46:26.692Z,15.46
2022-09-12T05:49:15.899Z,15.52
2022-09-12T05:52:05.050Z,15.59
2022-09-12T05:54:53.807Z,15.67
2022-09-12T05:57:46.085Z,15.75
2022-09-12T06:00:35.100Z,15.83
2022-09-12T06:03:23.959Z,15.91
2022-09-12T06:06:13.302Z,16.01
2022-09-12T06:09:04.340Z,16.10
2022-09-12T06:11:53.301Z,16.23
2022-09-12T06:14:43.692Z,16.36
2022-09-12T06:17:32.447Z,16.51
2022-09-12T06:20:21.407Z,16.67
2022-09-12T06:23:09.956Z,16.81
2022-09-12T06:25:59.121Z,16.94
2022-09-12T06:28:48.492Z,17.07
2022-09-12T06:31:40.114Z,17.19
2022-09-12T06:34:28.661Z,17.30
2022-09-12T06:37:17.214Z,17.42
2022-09-12T06:40:09.833Z,17.52
2022-09-12T06:42:58.825Z,17.60
2022-09-12T06:45:56.468Z,17.69
2022-09-12T06:48:44.833Z,17.77
2022-09-12T06:51:35.867Z,17.89
2022-09-12T06:54:26.129Z,17.99
2022-09-12T06:57:15.091Z,18.10
2022-09-12T07:00:05.986Z,18.21
2022-09-12T07:02:56.511Z,18.30
2022-09-12T07:05:45.654Z,18.40
2022-09-12T07:08:36.585Z,18.50
2022-09-12T07:11:27.675Z,18.59
2022-09-12T07:14:17.040Z,18.69
2022-09-12T07:17:06.452Z,18.80
2022-09-12T07:19:54.760Z,18.90
2022-09-12T07:22:43.430Z,19.02
2022-09-12T07:25:31.859Z,19.13
2022-09-12T07:28:21.232Z,19.25
2022-09-12T07:31:12.437Z,19.36
2022-09-12T07:34:04.677Z,19.49
2022-09-12T07:36:52.825Z,19.65
2022-09-12T07:39:41.596Z,19.80
2022-09-12T07:42:30.941Z,19.95
2022-09-12T07:45:20.719Z,20.15
2022-09-12T07:48:10.093Z,20.32
2022-09-12T07:51:01.347Z,20.50
2022-09-12T07:53:51.494Z,20.66
2022-09-12T07:56:40.657Z,20.85
2022-09-12T07:59:51.628Z,21.03
2022-09-12T08:02:38.131Z,21.25
2022-09-12T08:05:27.381Z,21.45
2022-09-12T08:08:15.954Z,21.61
2022-09-12T08:11:07.319Z,21.81
2022-09-12T08:13:58.159Z,21.98
2022-09-12T08:16:47.748Z,22.17
2022-09-12T08:19:36.709Z,22.37
2022-09-12T08:22:26.077Z,22.56
2022-09-12T08:25:16.676Z,22.73
2022-09-12T08:28:05.432Z,22.91
2022-09-12T08:30:55.603Z,23.08
2022-09-12T08:33:44.622Z,23.23
2022-09-12T08:36:33.746Z,23.42
2022-09-12T08:39:22.311Z,23.61
2022-09-12T08:42:22.446Z,23.77
2022-09-12T08:45:21.926Z,23.94
2022-09-12T08:48:12.894Z,24.11
2022-09-12T08:51:04.488Z,24.26
2022-09-12T08:53:56.808Z,24.41
2022-09-12T08:56:47.110Z,24.56
2022-09-12T08:59:39.777Z,24.70
2022-09-12T09:02:53.846Z,24.83
2022-09-12T09:05:50.933Z,24.98
2022-09-12T09:08:58.122Z,25.10
2022-09-12T09:11:58.346Z,25.24
2022-09-12T09:15:11.674Z,25.38
2022-09-12T09:18:04.503Z,25.53
2022-09-12T09:20:57.868Z,25.64
2022-09-12T09:23:50.609Z,25.75
2022-09-12T09:26:46.974Z,25.87
2022-09-12T09:29:41.232Z,26.02
2022-09-12T09:32:35.046Z,26.12
2022-09-12T09:35:36.326Z,26.23
2022-09-12T09:38:30.211Z,26.31
2022-09-12T09:41:35.804Z,26.37
2022-09-12T09:44:25.056Z,26.48
2022-09-12T09:47:14.542Z,26.58
2022-09-12T09:50:03.820Z,26.65
2022-09-12T09:52:55.127Z,26.75
2022-09-12T09:55:45.037Z,26.84
2022-09-12T09:58:34.888Z,26.93
2022-09-12T10:01:24.503Z,27.01
2022-09-12T10:04:21.955Z,27.04
2022-09-12T10:07:20.562Z,27.10
2022-09-12T10:10:19.655Z,27.16
2022-09-12T10:13:22.292Z,27.24
2022-09-12T10:16:19.285Z,27.34
2022-09-12T10:19:24.061Z,27.42
2022-09-12T10:22:18.750Z,27.51
2022-09-12T10:25:15.602Z,27.51
2022-09-12T10:28:21.155Z,27.59
2022-09-12T10:31:14.872Z,27.66
2022-09-12T10:34:05.153Z,27.76
2022-09-12T10:37:00.029Z,27.84
2022-09-12T10:39:54.910Z,27.91
2022-09-12T10:42:50.119Z,27.95
2022-09-12T10:45:38.917Z,28.01
2022-09-12T10:48:31.464Z,28.10
2022-09-12T10:51:29.723Z,28.19
2022-09-12T10:54:22.070Z,28.22
2022-09-12T10:57:44.261Z,28.33
2022-09-12T11:00:40.821Z,28.48
2022-09-12T11:03:42.518Z,28.59
2022-09-12T11:06:39.170Z,28.68
2022-09-12T11:09:38.422Z,28.69
2022-09-12T11:12:37.005Z,28.68
2022-09-12T11:15:43.005Z,28.63
2022-09-12T11:19:03.464Z,28.62
2022-09-12T11:22:17.820Z,28.64
2022-09-12T11:25:29.265Z,28.72
2022-09-12T11:28:33.246Z,28.77
2022-09-12T11:31:55.358Z,28.83
2022-09-12T11:34:56.400Z,28.91
2022-09-12T11:38:13.623Z,28.88
2022-09-12T11:41:05.950Z,28.78
2022-09-12T11:44:00.368Z,28.73
2022-09-12T11:46:51.957Z,28.78
2022-09-12T11:49:45.513Z,28.71
2022-09-12T11:52:38.211Z,28.72
2022-09-12T11:55:32.575Z,28.66
2022-09-12T11:58:26.363Z,28.62
2022-09-12T12:01:18.116Z,28.59
2022-09-12T12:04:12.549Z,28.51
2022-09-12T12:07:05.762Z,28.47
2022-09-12T12:09:55.809Z,28.42
2022-09-12T12:12:44.765Z,28.36
2022-09-12T12:15:35.500Z,28.26
2022-09-12T12:18:26.948Z,28.21
2022-09-12T12:21:21.400Z,28.19
2022-09-12T12:24:20.194Z,28.04
2022-09-12T12:27:25.089Z,27.94
2022-09-12T12:30:50.646Z,27.82
2022-09-12T12:34:00.824Z,27.58
2022-09-12T12:36:49.843Z,27.25
2022-09-12T12:40:01.423Z,26.86
2022-09-12T12:43:30.943Z,26.43
2022-09-12T12:46:22.073Z,25.88
2022-09-12T12:49:19.562Z,25.26
2022-09-12T12:52:17.808Z,24.70
2022-09-12T12:55:14.986Z,24.49
2022-09-12T12:58:05.679Z,24.35
2022-09-12T13:01:04.312Z,24.23
2022-09-12T13:03:59.085Z,24.06
2022-09-12T13:06:56.152Z,23.94
2022-09-12T13:09:52.273Z,23.92
2022-09-12T13:12:48.396Z,23.88
2022-09-12T13:15:58.769Z,23.84
2022-09-12T13:18:50.253Z,23.76
2022-09-12T13:21:38.860Z,23.79
2022-09-12T13:24:28.355Z,23.85
2022-09-12T13:27:22.971Z,23.78
2022-09-12T13:30:15.592Z,23.65
2022-09-12T13:33:20.910Z,23.50
2022-09-12T13:36:28.274Z,23.41
2022-09-12T13:39:21.732Z,23.42
2022-09-12T13:42:47.324Z,23.40
2022-09-12T13:45:38.980Z,23.44
2022-09-12T13:48:28.142Z,23.53
2022-09-12T13:51:25.329Z,23.57
2022-09-12T13:54:22.633Z,23.55
2022-09-12T13:57:31.104Z,23.49
2022-09-12T14:00:21.729Z,23.53
2022-09-12T14:03:46.347Z,23.59
2022-09-12T14:06:48.276Z,23.46
2022-09-12T14:09:38.395Z,23.36
2022-09-12T14:12:30.409Z,23.32
2022-09-12T14:15:23.232Z,23.21
2022-09-12T14:18:23.426Z,23.12
2022-09-12T14:21:22.449Z,23.07
2022-09-12T14:24:14.256Z,23.06
2022-09-12T14:27:01.599Z,23.02
2022-09-12T14:29:56.119Z,22.97
2022-09-12T14:33:03.067Z,22.91
2022-09-12T14:36:09.030Z,22.92
2022-09-12T14:39:01.665Z,22.93
2022-09-12T14:41:51.422Z,22.87
2022-09-12T14:44:41.207Z,22.82
2022-09-12T14:47:42.275Z,22.79
2022-09-12T14:50:36.671Z,22.78
2022-09-12T14:53:34.947Z,22.78
2022-09-12T14:56:37.829Z,22.75
2022-09-12T14:59:31.688Z,22.74
2022-09-12T15:02:24.938Z,22.65
2022-09-12T15:05:25.839Z,22.62
2022-09-12T15:08:16.039Z,22.65
2022-09-12T15:11:07.489Z,22.68
2022-09-12T15:13:56.369Z,22.77
2022-09-12T15:16:46.175Z,22.85
2022-09-12T15:19:35.927Z,22.88
2022-09-12T15:22:26.077Z,22.88
2022-09-12T15:25:15.484Z,22.93
2022-09-12T15:28:14.276Z,22.95
2022-09-12T15:31:08.164Z,22.93
2022-09-12T15:33:58.135Z,22.96
2022-09-12T15:36:46.689Z,22.97
2022-09-12T15:39:36.260Z,22.99
2022-09-12T15:42:28.762Z,23.02
2022-09-12T15:45:20.526Z,23.05
2022-09-12T15:48:07.848Z,23.10
2022-09-12T15:51:00.822Z,23.10
2022-09-12T15:53:50.322Z,23.03
2022-09-12T15:56:39.444Z,23.01
2022-09-12T15:59:29.014Z,22.94
2022-09-12T16:02:17.572Z,22.86
2022-09-12T16:05:12.251Z,22.82
2022-09-12T16:08:00.608Z,22.75
2022-09-12T16:10:53.242Z,22.67
2022-09-12T16:13:42.211Z,22.54
2022-09-12T16:16:30.676Z,22.41
2022-09-12T16:19:19.532Z,22.30
2022-09-12T16:22:08.888Z,22.20
2022-09-12T16:24:57.440Z,22.08
2022-09-12T16:27:46.607Z,22.00
2022-09-12T16:30:35.974Z,21.92
2022-09-12T16:33:25.961Z,21.86
2022-09-12T16:36:16.155Z,21.80
2022-09-12T16:39:05.928Z,21.75
2022-09-12T16:41:54.688Z,21.72
2022-09-12T16:44:44.058Z,21.67
2022-09-12T16:47:33.630Z,21.61
2022-09-12T16:50:23.235Z,21.53
2022-09-12T16:53:12.782Z,21.46
2022-09-12T16:56:01.531Z,21.38
2022-09-12T16:58:50.174Z,21.31
2022-09-12T17:01:39.217Z,21.23
2022-09-12T17:04:28.407Z,21.18
2022-09-12T17:07:16.962Z,21.11
2022-09-12T17:10:07.948Z,21.02
2022-09-12T17:12:56.728Z,20.90
2022-09-12T17:15:45.509Z,20.81
2022-09-12T17:18:34.029Z,20.74
2022-09-12T17:21:23.147Z,20.65
2022-09-12T17:24:11.541Z,20.56
2022-09-12T17:27:00.499Z,20.48
2022-09-12T17:29:49.255Z,20.37
2022-09-12T17:32:37.806Z,20.30
2022-09-12T17:35:26.560Z,20.23
2022-09-12T17:38:19.348Z,20.16
2022-09-12T17:41:15.426Z,20.10
2022-09-12T17:44:05.363Z,20.03
2022-09-12T17:46:53.663Z,19.95
2022-09-12T17:49:42.007Z,19.90
2022-09-12T17:52:31.600Z,19.82
2022-09-12T17:55:20.544Z,19.74
2022-09-12T17:58:09.505Z,19.69
2022-09-12T18:01:22.255Z,19.62
2022-09-12T18:04:11.179Z,19.56
2022-09-12T18:06:59.939Z,19.50
2022-09-12T18:09:50.279Z,19.47
2022-09-12T18:12:39.288Z,19.42
2022-09-12T18:15:28.659Z,19.38
2022-09-12T18:18:17.415Z,19.35
2022-09-12T18:21:10.628Z,19.31
2022-09-12T18:24:00.227Z,19.27
2022-09-12T18:26:49.622Z,19.21
2022-09-12T18:29:38.171Z,19.16
2022-09-12T18:32:27.744Z,19.12
2022-09-12T18:35:17.533Z,19.03
2022-09-12T18:38:06.692Z,18.98
2022-09-12T18:41:04.784Z,18.93
2022-09-12T18:43:57.590Z,18.85
2022-09-12T18:46:46.151Z,18.83
2022-09-12T18:49:35.625Z,18.78
2022-09-12T18:52:26.236Z,18.74
2022-09-12T18:55:14.580Z,18.69
2022-09-12T18:58:03.340Z,18.63
2022-09-12T19:00:52.348Z,18.58
2022-09-12T19:03:41.964Z,18.52
2022-09-12T19:06:33.870Z,18.48
2022-09-12T19:09:23.269Z,18.42
2022-09-12T19:12:13.868Z,18.37
2022-09-12T19:15:03.858Z,18.31
2022-09-12T19:17:52.607Z,18.27
2022-09-12T19:20:41.567Z,18.22
2022-09-12T19:23:32.300Z,18.16
2022-09-12T19:26:22.098Z,18.11
2022-09-12T19:29:13.475Z,18.04
2022-09-12T19:32:02.449Z,17.99
2022-09-12T19:34:51.077Z,17.92
2022-09-12T19:37:39.424Z,17.86
2022-09-12T19:40:28.179Z,17.80
2022-09-12T19:43:16.735Z,17.77
2022-09-12T19:46:06.557Z,17.68
2022-09-12T19:48:56.493Z,17.64
2022-09-12T19:51:45.450Z,17.57
2022-09-12T19:54:34.208Z,17.50
2022-09-12T19:57:23.782Z,17.43
2022-09-12T20:00:16.019Z,17.38
2022-09-12T20:03:06.002Z,17.31
2022-09-12T20:05:54.960Z,17.26
2022-09-12T20:08:45.287Z,17.19
2022-09-12T20:11:34.116Z,17.14
2022-09-12T20:14:22.458Z,17.10
2022-09-12T20:17:12.031Z,17.04
2022-09-12T20:20:00.787Z,17.00
2022-09-12T20:22:53.023Z,16.97
2022-09-12T20:25:42.801Z,16.92
2022-09-12T20:28:32.373Z,16.90
2022-09-12T20:31:21.193Z,16.86
2022-09-12T20:34:15.046Z,16.84
2022-09-12T20:37:03.353Z,16.83
2022-09-12T20:39:51.985Z,16.81
2022-09-12T20:42:40.857Z,16.82
2022-09-12T20:45:29.411Z,16.79
2022-09-12T20:48:18.599Z,16.79
2022-09-12T20:51:08.151Z,16.77
2022-09-12T20:53:57.725Z,16.76
2022-09-12T20:56:46.686Z,16.74
2022-09-12T20:59:38.872Z,16.70
2022-09-12T21:02:29.283Z,16.69
2022-09-12T21:05:18.890Z,16.67
2022-09-12T21:08:07.441Z,16.64
2022-09-12T21:10:58.245Z,16.60
2022-09-12T21:13:47.002Z,16.55
2022-09-12T21:16:38.141Z,16.52
2022-09-12T21:19:27.118Z,16.48
2022-09-12T21:22:15.724Z,16.43
2022-09-12T21:25:05.098Z,16.41
2022-09-12T21:27:53.844Z,16.37
2022-09-12T21:30:43.830Z,16.35
2022-09-12T21:33:32.993Z,16.34
2022-09-12T21:36:21.748Z,16.28
2022-09-12T21:39:11.528Z,16.25
2022-09-12T21:42:00.088Z,16.20
2022-09-12T21:44:49.037Z,16.16
2022-09-12T21:47:38.615Z,16.11
2022-09-12T21:50:27.574Z,16.04
2022-09-12T21:53:16.941Z,15.95
2022-09-12T21:56:08.816Z,15.90
2022-09-12T21:58:58.346Z,15.83
2022-09-12T22:01:47.361Z,15.78
2022-09-12T22:04:36.468Z,15.74
2022-09-12T22:07:26.657Z,15.68
2022-09-12T22:10:15.213Z,15.63
2022-09-12T22:13:04.982Z,15.58
2022-09-12T22:15:54.378Z,15.54
2022-09-12T22:18:42.906Z,15.49
2022-09-12T22:21:32.069Z,15.45
2022-09-12T22:24:29.474Z,15.42
2022-09-12T22:27:18.385Z,15.37
2022-09-12T22:30:10.191Z,15.33
2022-09-12T22:32:59.172Z,15.29
2022-09-12T22:35:47.504Z,15.25
2022-09-12T22:38:37.342Z,15.19
2022-09-12T22:41:26.258Z,15.16
2022-09-12T22:44:17.182Z,15.12
2022-09-12T22:47:05.340Z,15.07
2022-09-12T22:49:54.161Z,15.03
2022-09-12T22:52:42.505Z,14.98
2022-09-12T22:55:32.287Z,14.94
2022-09-12T22:58:21.659Z,14.93
2022-09-12T23:01:10.232Z,14.87
2022-09-12T23:03:59.375Z,14.83
2022-09-12T23:06:48.658Z,14.80
2022-09-12T23:09:37.961Z,14.77
2022-09-12T23:12:26.042Z,14.74
2022-09-12T23:15:15.005Z,14.70
2022-09-12T23:18:05.256Z,14.67
2022-09-12T23:21:02.178Z,14.62
2022-09-12T23:23:51.099Z,14.59
2022-09-12T23:26:40.060Z,14.53
2022-09-12T23:29:28.816Z,14.50
2022-09-12T23:32:17.570Z,14.46
2022-09-12T23:35:08.781Z,14.42
2022-09-12T23:37:57.946Z,14.36
2022-09-12T23:40:46.430Z,14.29
2022-09-12T23:43:34.840Z,14.23
2022-09-12T23:46:25.234Z,14.19
2022-09-12T23:49:14.605Z,14.13
2022-09-12T23:52:03.974Z,14.08
2022-09-12T23:54:52.933Z,14.00
2022-09-12T23:57:41.482Z,13.91
